Time;durP1;ratioP1;P1;durP2;ratioP2;P2;SDS_P1;SDS_P2;PMS_P1;PMS_P2;Temp;Humidity;BMP_temperature;BMP_pressure;BME280_temperature;BME280_humidity;BME280_pressure;Samples;Min_cycle;Max_cycle;Signal;HPM_P1;HPM_P2
2022/08/12 00:42:53;;;;;;;10.10;6.13;;;21.90;93.40;;;;;;5024090;28;20098;-74
2022/08/12 00:45:19;;;;;;;5.82;5.05;;;21.80;93.40;;;;;;5020751;28;20602;-74
2022/08/12 00:47:45;;;;;;;6.47;5.22;;;21.90;94.50;;;;;;5024636;28;20041;-75
2022/08/12 00:50:18;;;;;;;5.47;5.07;;;21.80;93.70;;;;;;5029208;28;20024;-75
2022/08/12 00:52:46;;;;;;;8.23;5.72;;;21.90;94.00;;;;;;5020531;28;20056;-75
2022/08/12 00:55:12;;;;;;;5.93;5.15;;;21.80;93.00;;;;;;5024446;28;20037;-75
2022/08/12 00:57:44;;;;;;;5.70;5.05;;;21.70;93.30;;;;;;5026476;28;20053;-75
2022/08/12 01:00:28;;;;;;;8.20;5.40;;;21.70;93.40;;;;;;5024601;28;20049;-74
2022/08/12 01:02:57;;;;;;;6.35;5.68;;;21.60;93.70;;;;;;5019606;28;20513;-74
2022/08/12 01:13:46;;;;;;;7.05;6.43;;;21.40;93.90;;;;;;5021138;28;20068;-74
2022/08/12 01:16:15;;;;;;;6.95;6.43;;;21.40;94.10;;;;;;5019348;28;20030;-74
2022/08/12 01:18:42;;;;;;;7.28;5.80;;;21.30;93.80;;;;;;5019617;28;20454;-75
2022/08/12 01:21:25;;;;;;;9.07;5.72;;;21.30;94.10;;;;;;5021865;28;20136;-75
2022/08/12 01:24:25;;;;;;;6.40;5.88;;;21.30;95.10;;;;;;5025210;28;20030;-74
2022/08/12 01:26:53;;;;;;;6.95;6.18;;;21.30;94.80;;;;;;5020320;28;20889;-75
2022/08/12 01:29:25;;;;;;;10.82;6.40;;;21.30;94.40;;;;;;5022856;28;20125;-75
2022/08/12 01:31:53;;;;;;;6.88;6.25;;;21.30;94.40;;;;;;5041361;28;20026;-74
2022/08/12 01:34:27;;;;;;;6.13;5.55;;;21.30;94.20;;;;;;5050376;28;20416;-79
2022/08/12 01:36:57;;;;;;;6.95;6.30;;;21.20;94.10;;;;;;5044464;28;20037;-74
2022/08/12 01:39:29;;;;;;;8.70;6.57;;;21.10;93.90;;;;;;5039431;28;20027;-74
2022/08/12 01:42:02;;;;;;;10.20;7.60;;;21.10;93.90;;;;;;5042287;28;20030;-75
2022/08/12 01:44:31;;;;;;;7.65;6.82;;;21.00;94.00;;;;;;5037721;28;20544;-74
2022/08/12 01:47:25;;;;;;;7.35;6.55;;;21.10;93.80;;;;;;5041674;28;20553;-74
2022/08/12 01:49:53;;;;;;;7.63;6.70;;;21.00;94.20;;;;;;5048058;28;20468;-74
2022/08/12 01:52:45;;;;;;;9.15;6.65;;;20.90;94.40;;;;;;5038437;28;20030;-78
2022/08/12 01:55:13;;;;;;;8.52;6.28;;;20.90;94.10;;;;;;5014504;28;20065;-76
2022/08/12 01:57:49;;;;;;;7.28;6.57;;;20.90;94.20;;;;;;5019268;28;20040;-74
2022/08/12 02:00:17;;;;;;;7.93;6.88;;;20.80;94.20;;;;;;5044622;28;20055;-75
2022/08/12 02:02:45;;;;;;;9.23;7.40;;;20.70;94.40;;;;;;5028336;28;20461;-74
2022/08/12 02:11:17;;;;;;;9.48;6.65;;;20.70;94.80;;;;;;5040469;28;20145;-75
2022/08/12 02:14:10;;;;;;;8.48;7.15;;;20.70;94.40;;;;;;5051193;28;20033;-74
2022/08/12 02:16:44;;;;;;;7.38;6.65;;;20.60;94.40;;;;;;5045000;28;20032;-74
2022/08/12 02:19:47;;;;;;;7.88;6.90;;;20.60;94.50;;;;;;5044763;28;20017;-74
2022/08/12 02:22:28;;;;;;;8.85;7.30;;;20.60;94.90;;;;;;5050507;28;20013;-74
2022/08/12 02:25:02;;;;;;;10.02;7.60;;;20.50;94.90;;;;;;5046051;28;20043;-74
2022/08/12 02:27:39;;;;;;;6.65;5.93;;;20.50;95.30;;;;;;5046349;28;20026;-74
2022/08/12 02:30:09;;;;;;;13.60;7.18;;;20.50;95.20;;;;;;5054763;28;20422;-74
2022/08/12 02:32:39;;;;;;;7.82;7.05;;;20.40;94.90;;;;;;5041721;28;20075;-75
2022/08/12 02:35:18;;;;;;;8.10;7.03;;;20.40;95.40;;;;;;5044447;28;20029;-75
2022/08/12 02:37:45;;;;;;;7.57;6.82;;;20.30;95.30;;;;;;5047027;28;20083;-74
2022/08/12 02:40:12;;;;;;;8.20;7.55;;;20.30;95.20;;;;;;5049497;28;20091;-74
2022/08/12 02:42:47;;;;;;;8.45;6.60;;;20.30;95.60;;;;;;5043244;28;20028;-75
2022/08/12 02:45:15;;;;;;;7.30;6.60;;;20.30;95.40;;;;;;5046772;28;20025;-74
2022/08/12 02:47:41;;;;;;;8.65;7.45;;;20.30;95.10;;;;;;5043053;28;20477;-74
2022/08/12 02:50:10;;;;;;;9.90;7.47;;;20.20;95.90;;;;;;5044648;28;20059;-74
2022/08/12 02:52:36;;;;;;;9.93;7.60;;;20.20;95.40;;;;;;5041125;28;20025;-74
2022/08/12 02:55:23;;;;;;;7.70;6.93;;;20.10;95.50;;;;;;5043061;28;20029;-74
2022/08/12 02:57:50;;;;;;;13.55;6.90;;;20.20;95.30;;;;;;5040342;28;20037;-75
2022/08/12 03:00:17;;;;;;;7.30;6.60;;;20.10;95.80;;;;;;5046504;28;20025;-74
2022/08/12 03:02:45;;;;;;;9.88;6.95;;;20.10;95.50;;;;;;5041249;28;20120;-74
2022/08/12 03:05:14;;;;;;;8.43;7.63;;;20.10;95.70;;;;;;5045043;28;20076;-75
2022/08/12 03:08:03;;;;;;;9.48;7.10;;;20.10;95.70;;;;;;5042349;28;20021;-74
2022/08/12 03:10:34;;;;;;;7.97;7.28;;;20.10;95.70;;;;;;5049120;28;20036;-74
2022/08/12 03:13:02;;;;;;;7.90;7.05;;;20.00;95.40;;;;;;5038743;28;20033;-74
2022/08/12 03:15:30;;;;;;;11.15;7.75;;;20.00;95.80;;;;;;5047188;28;20111;-74
2022/08/12 03:18:38;;;;;;;10.68;7.88;;;19.90;95.70;;;;;;5045627;28;20381;-74
2022/08/12 03:21:04;;;;;;;8.48;7.20;;;19.90;95.60;;;;;;4951230;28;20046;-74
2022/08/12 03:23:30;;;;;;;9.52;7.65;;;19.80;95.70;;;;;;4953289;28;20019;-74
2022/08/12 03:25:57;;;;;;;9.35;8.15;;;19.80;96.20;;;;;;4998494;28;20097;-74
2022/08/12 03:31:09;;;;;;;9.52;7.78;;;19.80;96.40;;;;;;5042751;28;20103;-74
2022/08/12 03:33:44;;;;;;;9.48;7.60;;;19.80;96.20;;;;;;5041304;28;20025;-74
2022/08/12 03:36:10;;;;;;;9.18;7.18;;;19.70;96.70;;;;;;5041582;28;20107;-75
2022/08/12 03:38:39;;;;;;;10.50;7.53;;;19.70;96.50;;;;;;5039504;28;20064;-75
2022/08/12 03:41:33;;;;;;;9.77;7.03;;;19.70;96.20;;;;;;5043250;28;20025;-75
2022/08/12 04:01:07;;;;;;;9.35;8.45;;;19.40;97.00;;;;;;5040644;28;20051;-74
2022/08/12 04:03:52;;;;;;;8.95;7.80;;;19.50;97.00;;;;;;5047995;28;20044;-74
2022/08/12 04:06:29;;;;;;;9.95;9.05;;;19.50;96.80;;;;;;5042107;28;20473;-74
2022/08/12 04:08:57;;;;;;;12.32;8.15;;;19.40;96.80;;;;;;5042023;28;20021;-75
2022/08/12 04:14:21;;;;;;;10.85;8.60;;;19.40;97.20;;;;;;5040999;28;20123;-74
2022/08/12 04:16:50;;;;;;;8.55;7.75;;;19.40;96.90;;;;;;5043866;28;20091;-74
2022/08/12 04:19:16;;;;;;;8.85;7.95;;;19.40;96.80;;;;;;5040662;28;20532;-75
2022/08/12 04:21:43;;;;;;;8.30;7.50;;;19.40;97.00;;;;;;5045824;28;20021;-75
2022/08/12 04:24:09;;;;;;;11.77;7.95;;;19.40;96.70;;;;;;5048719;28;20035;-75
2022/08/12 04:26:38;;;;;;;9.45;8.65;;;19.30;96.90;;;;;;5041414;28;20017;-77
2022/08/12 04:29:04;;;;;;;9.23;8.43;;;19.30;97.20;;;;;;5038949;28;20045;-76
2022/08/12 04:31:38;;;;;;;9.18;8.25;;;19.20;96.90;;;;;;5047427;28;20386;-75
2022/08/12 04:34:06;;;;;;;12.27;8.25;;;19.30;97.00;;;;;;5041830;28;20439;-74
2022/08/12 04:36:33;;;;;;;11.38;7.80;;;19.20;96.80;;;;;;5043394;28;20021;-74
2022/08/12 04:39:00;;;;;;;11.98;8.10;;;19.20;97.30;;;;;;5045573;28;20033;-77
2022/08/12 04:41:26;;;;;;;12.98;8.23;;;19.20;97.00;;;;;;5044312;28;20025;-77
2022/08/12 04:43:53;;;;;;;8.35;7.60;;;19.20;96.90;;;;;;5049122;28;20017;-74
2022/08/12 04:46:20;;;;;;;11.23;8.05;;;19.20;97.00;;;;;;5036628;28;20029;-75
2022/08/12 04:48:46;;;;;;;9.75;8.48;;;19.20;98.50;;;;;;5045891;28;20033;-76
2022/08/12 04:51:13;;;;;;;9.38;8.45;;;19.20;97.90;;;;;;5046986;28;20378;-74
2022/08/12 04:53:42;;;;;;;12.13;8.15;;;19.20;97.70;;;;;;5037006;28;20029;-75
2022/08/12 04:56:09;;;;;;;10.52;8.77;;;19.10;97.30;;;;;;5044779;28;20040;-75
2022/08/12 04:58:36;;;;;;;9.63;8.70;;;19.10;97.50;;;;;;5042330;28;20025;-74
2022/08/12 05:01:02;;;;;;;8.40;7.57;;;19.10;98.40;;;;;;5047383;28;20036;-72
2022/08/12 05:03:28;;;;;;;10.35;8.27;;;19.10;98.50;;;;;;5038880;28;20021;-75
2022/08/12 05:05:56;;;;;;;9.23;8.23;;;19.10;99.20;;;;;;5029156;28;20401;-74
2022/08/12 05:08:23;;;;;;;10.57;9.48;;;19.10;98.60;;;;;;5038308;28;20021;-76
2022/08/12 05:10:49;;;;;;;11.77;9.30;;;19.00;98.00;;;;;;5039874;28;20106;-76
2022/08/12 05:13:32;;;;;;;9.32;8.38;;;19.00;98.30;;;;;;5049710;28;20492;-76
2022/08/12 05:15:58;;;;;;;9.60;8.02;;;19.00;98.20;;;;;;5048273;28;20036;-78
2022/08/12 05:18:23;;;;;;;9.60;8.02;;;19.00;98.10;;;;;;5039930;28;20025;-75
2022/08/12 05:20:49;;;;;;;9.38;8.48;;;19.00;98.40;;;;;;5046089;28;20740;-75
2022/08/12 05:23:18;;;;;;;9.02;7.85;;;19.00;98.20;;;;;;5044798;28;20370;-75
2022/08/12 05:25:46;;;;;;;10.82;8.20;;;19.00;98.30;;;;;;5046024;28;20588;-75
2022/08/12 05:28:13;;;;;;;10.02;9.00;;;19.00;98.80;;;;;;5038918;28;20036;-74
2022/08/12 05:30:41;;;;;;;11.30;8.40;;;18.90;98.80;;;;;;5057060;28;20025;-74
2022/08/12 05:33:08;;;;;;;9.88;7.68;;;19.00;98.50;;;;;;5055395;28;20025;-74
2022/08/12 05:35:38;;;;;;;8.20;7.45;;;18.90;99.80;;;;;;5059871;28;20025;-74
2022/08/12 05:40:50;;;;;;;9.40;7.45;;;19.00;99.40;;;;;;5040594;28;20076;-74
2022/08/12 05:43:16;;;;;;;16.90;8.52;;;19.00;99.90;;;;;;5044025;28;20014;-74
2022/08/12 05:45:42;;;;;;;9.48;6.50;;;19.00;99.40;;;;;;5051245;28;20044;-74
2022/08/12 05:48:08;;;;;;;11.27;7.20;;;19.00;99.50;;;;;;5044955;28;20026;-74
2022/08/12 05:50:35;;;;;;;11.52;7.70;;;19.00;99.90;;;;;;5052050;28;20484;-73
2022/08/12 05:53:01;;;;;;;10.85;8.18;;;19.10;99.60;;;;;;5048076;28;20396;-74
2022/08/12 05:55:27;;;;;;;8.07;7.13;;;19.10;99.50;;;;;;5043552;28;20037;-74
2022/08/12 05:57:54;;;;;;;10.45;8.13;;;19.20;99.10;;;;;;5051228;28;20029;-74
2022/08/12 06:00:24;;;;;;;9.40;7.45;;;19.30;99.60;;;;;;5041431;28;20100;-79
2022/08/12 06:02:55;;;;;;;8.27;7.47;;;19.30;99.20;;;;;;5041723;28;20167;-76
2022/08/12 06:05:21;;;;;;;10.95;7.40;;;19.30;99.40;;;;;;5042413;28;20033;-75
2022/08/12 06:07:47;;;;;;;14.25;7.85;;;19.30;99.60;;;;;;5050115;28;20029;-74
2022/08/12 06:10:15;;;;;;;8.88;7.20;;;19.30;99.50;;;;;;5043202;28;20071;-75
2022/08/12 06:12:41;;;;;;;8.38;7.57;;;19.30;99.70;;;;;;5050626;28;20056;-75
2022/08/12 06:15:07;;;;;;;10.38;7.15;;;19.30;99.60;;;;;;5040675;28;20112;-75
2022/08/12 06:17:33;;;;;;;10.52;7.47;;;19.40;99.90;;;;;;5044144;28;20469;-76
2022/08/12 06:19:58;;;;;;;11.23;6.93;;;19.40;99.90;;;;;;5044720;28;20040;-80
2022/08/12 06:22:25;;;;;;;10.10;6.90;;;19.40;99.90;;;;;;5043889;28;20021;-77
2022/08/12 06:24:54;;;;;;;16.15;7.78;;;19.40;99.90;;;;;;5040056;28;20021;-75
2022/08/12 06:27:20;;;;;;;7.25;6.47;;;19.40;99.90;;;;;;5046571;28;20469;-75
2022/08/12 06:29:46;;;;;;;8.38;7.57;;;19.40;99.90;;;;;;5036477;28;20037;-74
2022/08/12 06:32:14;;;;;;;8.32;7.03;;;19.50;99.90;;;;;;5042927;28;20026;-77
2022/08/12 06:34:39;;;;;;;7.65;6.35;;;19.50;99.90;;;;;;5044252;28;20059;-76
2022/08/12 06:37:06;;;;;;;9.38;6.55;;;19.60;99.90;;;;;;5047787;28;20053;-76
2022/08/12 06:39:32;;;;;;;6.78;6.15;;;19.70;99.90;;;;;;5050777;28;20106;-75
2022/08/12 06:44:41;;;;;;;7.00;6.40;;;19.70;99.90;;;;;;5046731;28;20043;-74
2022/08/12 06:47:07;;;;;;;9.73;6.70;;;19.80;99.90;;;;;;5042277;28;20021;-73
2022/08/12 06:49:35;;;;;;;6.88;5.95;;;19.80;99.90;;;;;;5044147;28;20105;-73
2022/08/12 06:52:03;;;;;;;7.03;6.35;;;19.90;99.90;;;;;;5044373;28;20096;-73
2022/08/12 06:54:29;;;;;;;8.55;6.30;;;19.90;99.90;;;;;;5046026;28;20044;-73
2022/08/12 06:56:56;;;;;;;9.07;6.72;;;19.90;99.90;;;;;;5044278;28;20025;-73
2022/08/12 06:59:22;;;;;;;8.05;5.80;;;20.00;99.90;;;;;;5045495;28;20030;-73
2022/08/12 07:01:48;;;;;;;9.32;6.97;;;20.10;99.90;;;;;;5058982;28;20095;-73
2022/08/12 07:04:16;;;;;;;7.72;7.05;;;20.20;99.90;;;;;;5046537;28;20102;-74
2022/08/12 07:06:43;;;;;;;12.68;7.45;;;20.20;99.90;;;;;;5043499;28;20056;-73
2022/08/12 07:09:09;;;;;;;7.72;7.03;;;20.30;99.90;;;;;;5033153;28;20032;-73
2022/08/12 07:11:38;;;;;;;11.50;6.82;;;20.50;99.90;;;;;;5047828;28;20366;-73
2022/08/12 07:14:04;;;;;;;11.65;8.05;;;20.50;99.90;;;;;;5046873;28;20033;-73
2022/08/12 07:19:16;;;;;;;11.20;6.85;;;20.70;99.90;;;;;;5049076;28;20520;-73
2022/08/12 07:21:41;;;;;;;8.48;6.50;;;20.90;99.90;;;;;;5056280;28;20064;-73
2022/08/12 07:24:07;;;;;;;13.43;7.45;;;21.00;99.90;;;;;;5039969;28;20424;-74
2022/08/12 07:26:38;;;;;;;10.95;7.50;;;21.10;99.90;;;;;;5049194;28;20025;-73
2022/08/12 07:29:03;;;;;;;9.82;6.72;;;21.30;99.90;;;;;;5046608;28;20473;-73
2022/08/12 07:31:29;;;;;;;10.25;6.70;;;21.40;99.90;;;;;;5051340;28;20043;-74
2022/08/12 07:33:55;;;;;;;11.93;6.70;;;21.60;99.90;;;;;;5048564;28;20021;-74
2022/08/12 07:36:21;;;;;;;9.90;6.90;;;21.60;99.90;;;;;;5046702;28;20063;-73
2022/08/12 07:38:50;;;;;;;9.43;6.43;;;21.80;99.90;;;;;;5049627;28;20102;-74
2022/08/12 07:41:16;;;;;;;7.35;5.75;;;21.90;99.90;;;;;;5051504;28;20021;-75
2022/08/12 07:43:49;;;;;;;10.27;6.13;;;22.00;99.90;;;;;;5052106;28;20029;-74
2022/08/12 07:46:19;;;;;;;12.80;7.18;;;22.20;99.90;;;;;;5055580;28;20082;-74
2022/08/12 07:48:50;;;;;;;14.52;5.90;;;22.40;99.90;;;;;;5058618;28;20036;-74
2022/08/12 07:51:18;;;;;;;13.70;5.95;;;22.50;99.90;;;;;;5048327;28;20048;-75
2022/08/12 07:53:45;;;;;;;10.02;5.55;;;22.70;99.90;;;;;;5053803;28;20094;-76
2022/08/12 07:56:11;;;;;;;8.82;5.60;;;22.80;99.90;;;;;;5048215;28;20037;-75
2022/08/12 07:58:38;;;;;;;8.07;5.53;;;23.00;99.90;;;;;;5050309;28;20032;-75
2022/08/12 08:01:14;;;;;;;8.50;5.72;;;23.10;99.90;;;;;;5055778;28;20025;-76
2022/08/12 08:04:54;;;;;;;10.63;5.18;;;23.30;99.90;;;;;;5052542;28;20032;-75
2022/08/12 08:06:27;;;;;;;6.00;4.20;;;23.40;99.90;;;;;;5051984;28;20037;-75
2022/08/12 08:08:55;;;;;;;8.95;4.50;;;23.60;99.90;;;;;;5051442;28;20029;-73
2022/08/12 08:14:06;;;;;;;6.45;4.50;;;23.90;99.50;;;;;;5046968;28;20063;-73
2022/08/12 08:16:32;;;;;;;9.23;4.25;;;24.10;96.00;;;;;;5045501;28;20052;-73
2022/08/12 08:18:58;;;;;;;6.30;4.18;;;24.30;98.50;;;;;;5049349;28;20134;-73
2022/08/12 08:21:31;;;;;;;8.90;3.95;;;24.40;97.90;;;;;;5041448;28;20529;-73
2022/08/12 08:24:13;;;;;;;7.05;4.20;;;24.60;99.90;;;;;;5039385;28;20022;-73
2022/08/12 08:26:40;;;;;;;6.33;4.07;;;24.80;96.20;;;;;;5039836;28;20110;-73
2022/08/12 08:29:07;;;;;;;9.02;4.43;;;24.80;97.70;;;;;;5047238;28;20029;-74
2022/08/12 08:31:34;;;;;;;7.85;4.60;;;25.00;99.40;;;;;;5041381;28;20029;-74
2022/08/12 08:34:00;;;;;;;9.30;4.50;;;25.10;98.10;;;;;;5043277;28;20376;-73
2022/08/12 08:36:26;;;;;;;8.32;4.15;;;25.30;98.60;;;;;;5038331;28;20029;-73
2022/08/12 08:38:52;;;;;;;8.80;4.03;;;25.40;98.20;;;;;;5038151;28;20025;-74
2022/08/12 08:44:10;;;;;;;7.57;3.65;;;25.80;96.80;;;;;;5021289;28;20045;-74
2022/08/12 08:46:36;;;;;;;7.10;4.28;;;26.10;94.30;;;;;;5043930;28;20072;-74
2022/08/12 08:49:04;;;;;;;5.45;3.85;;;26.20;94.60;;;;;;5042217;28;20028;-74
2022/08/12 08:51:30;;;;;;;7.25;3.97;;;26.30;97.20;;;;;;5046983;28;20025;-75
2022/08/12 08:53:55;;;;;;;7.13;4.43;;;26.40;96.10;;;;;;5037448;28;20079;-75
2022/08/12 08:56:21;;;;;;;8.75;4.53;;;26.40;94.90;;;;;;5043713;28;20033;-75
2022/08/12 08:58:48;;;;;;;7.20;4.18;;;26.60;95.00;;;;;;5047224;28;20026;-74
2022/08/12 09:01:19;;;;;;;8.02;3.80;;;26.70;93.20;;;;;;5044452;28;20057;-75
2022/08/12 09:03:46;;;;;;;7.32;3.58;;;26.80;94.80;;;;;;5042216;28;20032;-74
2022/08/12 09:06:13;;;;;;;9.60;4.00;;;27.00;92.90;;;;;;5047071;28;20029;-75
2022/08/12 09:08:43;;;;;;;8.90;4.38;;;27.10;94.60;;;;;;5040636;28;20056;-75
2022/08/12 09:13:53;;;;;;;6.85;3.85;;;27.50;92.00;;;;;;5041071;28;20114;-75
2022/08/12 09:16:20;;;;;;;6.22;3.88;;;27.80;88.80;;;;;;5044923;28;20076;-74
2022/08/12 09:18:46;;;;;;;6.60;3.83;;;27.90;89.30;;;;;;5039724;28;20036;-75
2022/08/12 09:21:12;;;;;;;8.65;3.50;;;27.90;90.00;;;;;;5045632;28;20396;-73
2022/08/12 09:23:38;;;;;;;5.90;3.30;;;28.10;89.30;;;;;;5046866;28;20024;-72
2022/08/12 09:26:04;;;;;;;7.20;3.85;;;28.20;91.30;;;;;;5049249;28;21111;-72
2022/08/12 09:28:32;;;;;;;4.93;3.08;;;28.30;90.80;;;;;;5047844;28;20040;-72
2022/08/12 09:30:58;;;;;;;7.68;3.10;;;28.40;90.40;;;;;;5032168;28;20404;-72
2022/08/12 09:33:32;;;;;;;7.72;3.42;;;28.50;84.40;;;;;;5046750;28;20028;-72
2022/08/12 09:36:03;;;;;;;4.05;3.13;;;28.70;82.10;;;;;;5048195;28;20536;-72
2022/08/12 09:38:29;;;;;;;7.35;3.17;;;28.80;83.50;;;;;;5047662;28;20017;-72
2022/08/12 09:40:56;;;;;;;9.48;3.05;;;29.00;83.50;;;;;;5050687;28;20029;-73
2022/08/12 09:46:08;;;;;;;4.15;2.80;;;29.20;82.00;;;;;;5052050;28;20401;-74
2022/08/12 09:48:34;;;;;;;3.85;3.30;;;29.40;85.10;;;;;;5031753;28;20032;-75
2022/08/12 09:50:59;;;;;;;6.22;3.55;;;29.50;82.90;;;;;;5049963;28;20030;-75
2022/08/12 09:53:26;;;;;;;6.13;3.38;;;29.60;84.50;;;;;;5049368;28;20044;-75
2022/08/12 09:55:55;;;;;;;7.95;3.33;;;29.60;84.30;;;;;;5043932;28;20036;-78
2022/08/12 09:58:27;;;;;;;6.97;2.80;;;29.80;82.70;;;;;;5046615;28;20492;-82
2022/08/12 10:01:00;;;;;;;5.25;3.80;;;29.90;86.10;;;;;;5044251;28;20366;-81
2022/08/12 10:03:30;;;;;;;6.55;4.20;;;30.10;80.70;;;;;;5048287;28;20067;-77
2022/08/12 10:05:58;;;;;;;7.50;3.33;;;30.20;83.50;;;;;;5043389;28;20036;-80
2022/08/12 10:08:31;;;;;;;6.38;3.08;;;30.40;83.60;;;;;;5047913;28;20491;-80
2022/08/12 10:13:43;;;;;;;4.40;3.35;;;30.50;80.70;;;;;;5046670;28;20047;-89
2022/08/12 10:16:12;;;;;;;5.53;3.53;;;30.60;76.80;;;;;;5048492;28;20263;-89
2022/08/12 10:18:43;;;;;;;8.02;2.75;;;30.70;76.30;;;;;;5033304;28;20099;-88
2022/08/12 10:21:12;;;;;;;6.78;3.35;;;30.70;77.50;;;;;;5043917;28;20030;-85
2022/08/12 10:23:39;;;;;;;9.93;3.10;;;31.10;72.80;;;;;;5050834;28;20520;-89
2022/08/12 10:31:33;;;;;;;5.32;3.60;;;31.10;75.60;;;;;;5046401;28;20043;-79
2022/08/12 10:33:59;;;;;;;4.43;2.83;;;31.20;75.90;;;;;;5042644;28;20037;-79
2022/08/12 10:36:25;;;;;;;4.95;3.35;;;31.20;71.70;;;;;;5044808;28;20036;-79
2022/08/12 10:38:50;;;;;;;6.30;3.17;;;31.00;72.80;;;;;;5049386;28;20337;-80
2022/08/12 10:44:04;;;;;;;6.28;2.97;;;31.30;75.20;;;;;;5050939;28;20136;-78
2022/08/12 10:46:30;;;;;;;3.33;2.97;;;31.50;72.30;;;;;;5042252;28;20028;-83
2022/08/12 10:48:56;;;;;;;4.93;2.70;;;31.50;70.50;;;;;;5048659;28;20023;-84
2022/08/12 10:51:22;;;;;;;5.82;3.25;;;31.70;71.30;;;;;;5046737;28;20020;-84
2022/08/12 10:53:49;;;;;;;4.55;2.97;;;31.60;70.50;;;;;;5047193;28;20027;-80
2022/08/12 10:56:16;;;;;;;3.30;2.80;;;31.50;72.40;;;;;;5049438;28;20037;-84
2022/08/12 10:58:42;;;;;;;3.95;3.08;;;31.80;70.90;;;;;;5032811;28;20447;-81
2022/08/12 11:01:09;;;;;;;6.00;3.20;;;31.80;70.60;;;;;;5049449;28;20023;-81
2022/08/12 11:03:40;;;;;;;5.43;3.15;;;31.90;72.30;;;;;;5044562;28;20021;-84
2022/08/12 11:06:09;;;;;;;9.38;3.03;;;31.80;68.50;;;;;;5048798;28;20013;-85
2022/08/12 11:08:37;;;;;;;5.10;3.20;;;31.90;69.50;;;;;;5041229;28;20035;-81
2022/08/12 11:11:07;;;;;;;9.30;3.75;;;31.90;71.00;;;;;;5028386;28;20026;-82
2022/08/12 11:13:35;;;;;;;5.55;3.70;;;32.10;74.60;;;;;;5030956;28;20021;-82
2022/08/12 11:16:01;;;;;;;4.82;3.42;;;32.30;71.20;;;;;;5040272;28;20029;-84
2022/08/12 11:18:28;;;;;;;8.50;3.42;;;32.20;72.20;;;;;;5049977;28;20029;-81
2022/08/12 11:20:54;;;;;;;7.57;3.08;;;32.40;71.50;;;;;;5045418;28;20037;-78
2022/08/12 11:23:21;;;;;;;10.63;3.67;;;32.40;70.60;;;;;;5026897;28;20469;-86
2022/08/12 11:25:48;;;;;;;5.05;2.80;;;32.40;66.50;;;;;;5031390;28;20028;-83
2022/08/12 11:28:15;;;;;;;3.47;3.17;;;32.30;65.40;;;;;;5042542;28;20526;-86
2022/08/12 11:30:42;;;;;;;4.55;3.10;;;32.30;68.20;;;;;;5046688;28;20658;-82
2022/08/12 11:33:08;;;;;;;7.72;3.55;;;32.40;70.40;;;;;;5042176;28;20033;-88
2022/08/12 11:35:37;;;;;;;6.05;3.17;;;32.40;70.30;;;;;;5049334;28;20037;-91
2022/08/12 11:38:04;;;;;;;4.05;2.90;;;32.40;68.80;;;;;;5031154;28;20387;-86
2022/08/12 11:40:30;;;;;;;4.30;2.90;;;32.60;65.80;;;;;;5047011;28;20056;-83
2022/08/12 11:42:59;;;;;;;5.07;3.53;;;32.60;71.60;;;;;;5040132;28;20492;-79
2022/08/12 11:45:26;;;;;;;8.00;2.95;;;32.50;66.70;;;;;;5032183;28;20017;-83
2022/08/12 11:47:53;;;;;;;5.90;2.92;;;32.70;66.70;;;;;;5042140;28;20030;-82
2022/08/12 11:50:19;;;;;;;7.25;3.13;;;32.80;67.90;;;;;;5040762;28;20021;-85
2022/08/12 11:52:49;;;;;;;3.38;3.05;;;32.90;68.90;;;;;;5040063;28;20477;-81
2022/08/12 11:55:16;;;;;;;4.43;2.88;;;32.90;71.10;;;;;;5047430;28;20029;-81
2022/08/12 11:57:55;;;;;;;4.15;3.13;;;33.00;66.60;;;;;;5043281;28;20059;-79
2022/08/12 12:00:21;;;;;;;7.28;3.00;;;32.90;65.70;;;;;;5044733;28;20021;-82
2022/08/12 12:02:48;;;;;;;5.07;3.10;;;33.40;72.30;;;;;;5043011;28;20065;-83
2022/08/12 12:05:15;;;;;;;5.55;2.90;;;33.10;65.10;;;;;;5041485;28;20028;-82
2022/08/12 12:07:43;;;;;;;4.28;3.42;;;33.20;70.60;;;;;;5051275;28;20531;-86
2022/08/12 12:10:11;;;;;;;4.95;3.17;;;33.40;68.00;;;;;;5041329;28;20044;-87
2022/08/12 12:12:36;;;;;;;7.95;3.08;;;33.30;63.90;;;;;;5046834;28;20023;-88
2022/08/12 12:15:03;;;;;;;5.88;3.67;;;33.30;64.80;;;;;;5043530;28;20029;-88
2022/08/12 12:17:29;;;;;;;4.38;3.53;;;33.10;60.40;;;;;;5047022;28;20155;-87
2022/08/12 12:19:55;;;;;;;7.45;3.70;;;33.00;67.80;;;;;;5038683;28;20021;-89
2022/08/12 12:22:21;;;;;;;3.30;2.55;;;33.30;63.30;;;;;;5046784;28;20030;-93
2022/08/12 12:24:47;;;;;;;6.60;2.90;;;33.40;69.20;;;;;;5060338;28;20032;-88
2022/08/12 12:27:18;;;;;;;4.93;2.92;;;33.20;63.00;;;;;;5044597;28;20061;-87
2022/08/12 12:29:44;;;;;;;4.38;2.90;;;33.00;64.60;;;;;;5054143;28;20032;-89
2022/08/12 12:32:09;;;;;;;7.10;2.72;;;33.20;63.30;;;;;;5050751;28;20486;-88
2022/08/12 12:34:36;;;;;;;5.43;2.70;;;33.30;67.10;;;;;;5043941;28;20053;-86
2022/08/12 12:37:02;;;;;;;4.13;2.78;;;33.30;64.70;;;;;;5046409;28;20033;-80
2022/08/12 12:39:27;;;;;;;4.90;2.80;;;33.40;64.90;;;;;;5043527;28;20028;-79
2022/08/12 12:41:53;;;;;;;2.88;2.53;;;33.40;59.60;;;;;;5048037;28;20033;-81
2022/08/12 12:44:18;;;;;;;4.95;2.40;;;33.40;65.50;;;;;;5040449;28;20099;-78
2022/08/12 12:46:44;;;;;;;4.13;2.83;;;33.10;64.50;;;;;;5046577;28;20037;-78
2022/08/12 12:49:10;;;;;;;2.83;2.50;;;33.10;60.40;;;;;;5045558;28;20033;-78
2022/08/12 12:51:35;;;;;;;3.88;2.70;;;33.00;62.60;;;;;;5050077;28;20060;-89
2022/08/12 12:54:01;;;;;;;9.15;2.58;;;33.20;61.70;;;;;;5040464;28;20021;-82
2022/08/12 12:56:27;;;;;;;3.30;2.60;;;33.20;66.40;;;;;;5043407;28;20461;-88
2022/08/12 12:58:53;;;;;;;4.47;2.67;;;33.30;61.00;;;;;;5044093;28;20469;-85
2022/08/12 13:01:24;;;;;;;4.82;2.65;;;33.30;66.80;;;;;;5051777;28;20079;-85
2022/08/12 13:03:53;;;;;;;5.57;2.40;;;33.40;62.40;;;;;;5050074;28;20029;-81
2022/08/12 13:06:28;;;;;;;6.22;2.50;;;33.50;64.60;;;;;;5048949;28;20021;-92
2022/08/12 13:08:55;;;;;;;2.50;2.30;;;33.60;61.60;;;;;;5040981;28;20036;-89
2022/08/12 13:11:21;;;;;;;2.42;2.22;;;33.40;60.20;;;;;;5043683;28;20040;-85
2022/08/12 13:13:52;;;;;;;4.93;2.30;;;33.40;61.80;;;;;;5042532;28;20029;-88
2022/08/12 13:16:21;;;;;;;3.28;2.97;;;33.60;67.20;;;;;;5041630;28;20033;-87
2022/08/12 13:18:51;;;;;;;7.20;2.45;;;33.70;64.20;;;;;;5046721;28;20032;-88
2022/08/12 13:21:17;;;;;;;4.72;2.42;;;33.70;65.10;;;;;;5040633;28;20067;-90
2022/08/12 13:23:47;;;;;;;5.47;2.53;;;33.90;61.30;;;;;;5047906;28;20053;-89
2022/08/12 13:26:14;;;;;;;7.75;2.80;;;33.90;61.70;;;;;;5036437;28;20059;-89
2022/08/12 13:28:41;;;;;;;6.40;2.35;;;33.80;65.30;;;;;;5038863;28;20033;-91
2022/08/12 13:31:07;;;;;;;6.55;2.70;;;33.90;67.00;;;;;;5042329;28;20833;-86
2022/08/12 13:33:33;;;;;;;2.85;2.58;;;33.60;60.50;;;;;;5046947;28;20025;-87
2022/08/12 13:36:02;;;;;;;4.47;2.65;;;33.60;62.60;;;;;;5046964;28;20116;-88
2022/08/12 13:38:39;;;;;;;2.88;2.65;;;33.50;64.60;;;;;;5045960;28;20025;-87
2022/08/12 13:41:07;;;;;;;7.07;3.00;;;33.40;64.20;;;;;;5038722;28;20535;-88
2022/08/12 13:43:33;;;;;;;8.60;2.70;;;33.50;63.50;;;;;;5044435;28;20025;-87
2022/08/12 13:46:00;;;;;;;5.38;2.65;;;33.30;63.70;;;;;;5040744;28;20235;-87
2022/08/12 13:48:26;;;;;;;7.22;2.80;;;33.30;64.10;;;;;;5046735;28;20408;-88
2022/08/12 13:50:51;;;;;;;7.18;2.40;;;33.30;62.50;;;;;;5041604;28;20021;-87
2022/08/12 13:53:18;;;;;;;8.95;3.30;;;33.20;61.80;;;;;;5044452;28;20029;-87
2022/08/12 13:55:48;;;;;;;4.45;2.90;;;33.30;65.60;;;;;;5042099;28;20032;-87
2022/08/12 13:58:16;;;;;;;3.40;3.10;;;33.40;64.10;;;;;;5044156;28;20105;-85
2022/08/12 14:00:49;;;;;;;5.05;3.53;;;33.50;66.60;;;;;;5036407;28;20114;-82
2022/08/12 14:03:17;;;;;;;6.00;2.40;;;33.80;65.10;;;;;;5043105;28;20025;-88
2022/08/12 14:05:43;;;;;;;4.68;2.90;;;33.70;62.30;;;;;;5044040;28;20178;-84
2022/08/12 14:08:10;;;;;;;4.65;3.15;;;33.60;63.60;;;;;;5040725;28;20017;-86
2022/08/12 14:10:39;;;;;;;3.35;3.05;;;33.60;63.30;;;;;;5050437;28;20021;-91
2022/08/12 14:13:10;;;;;;;5.30;3.05;;;33.70;64.20;;;;;;5047807;28;20032;-85
2022/08/12 14:15:38;;;;;;;4.28;3.13;;;33.60;61.60;;;;;;5041664;28;20044;-86
2022/08/12 14:18:29;;;;;;;5.57;2.97;;;33.60;62.50;;;;;;5046880;28;20032;-87
2022/08/12 14:21:00;;;;;;;4.95;2.72;;;33.50;62.40;;;;;;5049759;28;20040;-87
2022/08/12 14:23:31;;;;;;;4.53;2.95;;;33.40;60.80;;;;;;5053085;28;20118;-87
2022/08/12 14:25:59;;;;;;;4.68;2.55;;;33.50;62.00;;;;;;5043377;28;20126;-85
2022/08/12 14:28:26;;;;;;;3.55;2.88;;;33.50;62.70;;;;;;5047282;28;20021;-87
2022/08/12 14:31:01;;;;;;;4.35;2.90;;;33.40;62.90;;;;;;5050807;28;20076;-88
2022/08/12 14:33:33;;;;;;;6.60;3.00;;;33.40;64.10;;;;;;5042933;28;20021;-84
2022/08/12 14:36:03;;;;;;;4.03;3.22;;;33.40;64.90;;;;;;5043558;28;20028;-88
2022/08/12 14:38:37;;;;;;;6.35;3.20;;;33.50;63.80;;;;;;5036163;28;20381;-87
2022/08/12 14:41:04;;;;;;;4.45;2.80;;;33.50;68.10;;;;;;5046409;28;20025;-84
2022/08/12 14:43:36;;;;;;;4.75;3.00;;;33.40;64.90;;;;;;5049854;28;20037;-87